Weather at Memphis International Airport

Public forecast

Using degrees Fahrenheit for public forecast. Weather courtesy of forecast.io.

Current aviation weather report (METAR) for Memphis International Airport

Retrieved 2021/12/05 17:24 UTC (9 minutes ago):

KMEM 051724Z 20014G22KT 6SM -RA BR SCT016 BKN038 OVC080 19/17 A2996 RMK AO2 LTG DSNT SW RAB11 P0001 T01940172

Aviation forecast (TAF) for Memphis International Airport

Retrieved 2021/12/05 12:33 UTC (5 hours ago):

TAF KMEM 051129Z 0512/0618 16005KT 2SM BR OVC002 TEMPO 0512/0515 1SM BR OVC004 FM051500 19009KT 6SM BR VCSH OVC009 FM051900 20013G19KT P6SM VCSH OVC015 FM060000 19014G21KT P6SM BKN040 OVC100 WS020/20040KT FM060800 23014G22KT 6SM -SHRA VCTS BKN020CB WS020/21045KT FM061400 30013G20KT P6SM VCSH BKN040